Terminal Aerodrome Forecast
Issued by NWS

Home | Current Version | Previous Version | Text Only | Print | Product List | Glossary On
Versions: 1 2 3 4 5 6 7 8 9 10 11 12 13 14 15 16 17 18 19 20 21 22 23 24
000
FTUS41 KBGM 042323
TAFITH
TAF
KITH 042323Z 0500/0524 10005KT P6SM SCT040
     FM050500 14005KT P6SM BKN025
     FM050800 15005KT 2SM BR OVC005
     FM051300 16006KT P6SM BKN025
     FM051600 18007KT P6SM SCT040=

USA.gov is the U.S. government's official web portal to all federal, state and local government web resources and services.